Time;durP1;ratioP1;P1;durP2;ratioP2;P2;SDS_P1;SDS_P2;PMS_P1;PMS_P2;Temp;Humidity;BMP_temperature;BMP_pressure;BME280_temperature;BME280_humidity;BME280_pressure;Samples;Min_cycle;Max_cycle;Signal;HPM_P1;HPM_P2
2021/08/15 00:01:46;;;;;;;4.25;1.75;;;;;;;16.11;70.53;99894.16;1712193;82;21376;-55
2021/08/15 00:04:13;;;;;;;7.47;1.82;;;;;;;16.11;70.47;99896.88;1717054;82;21470;-56
2021/08/15 00:06:39;;;;;;;3.20;1.95;;;;;;;16.09;70.29;99900.17;1712541;82;21112;-55
2021/08/15 00:09:07;;;;;;;11.12;2.47;;;;;;;16.09;70.52;99901.53;1717845;82;21039;-55
2021/08/15 00:11:35;;;;;;;10.00;2.75;;;;;;;16.07;70.49;99898.08;1711618;82;21082;-56
2021/08/15 00:14:01;;;;;;;8.38;2.17;;;;;;;16.02;70.76;99890.23;1710863;82;21066;-55
2021/08/15 00:16:29;;;;;;;12.05;1.72;;;;;;;16.02;70.76;99890.23;1713296;80;21141;-56
2021/08/15 00:18:56;;;;;;;5.95;2.30;;;;;;;16.04;70.77;99896.44;1711432;82;21107;-55
2021/08/15 00:21:23;;;;;;;2.10;1.22;;;;;;;16.04;70.63;99899.63;1712628;82;21499;-55
2021/08/15 00:23:49;;;;;;;2.85;1.20;;;;;;;16.03;70.47;99900.61;1711506;82;21527;-56
2021/08/15 00:26:15;;;;;;;5.75;1.52;;;;;;;16.01;70.35;99902.06;1711037;82;21724;-55
2021/08/15 00:28:43;;;;;;;2.15;1.32;;;;;;;15.99;70.34;99895.02;1716550;82;21109;-55
2021/08/15 00:31:11;;;;;;;2.58;1.47;;;;;;;15.97;70.45;99891.53;1711304;81;21090;-56
2021/08/15 00:33:37;;;;;;;4.17;1.40;;;;;;;15.96;70.37;99889.78;1712812;82;21058;-56
2021/08/15 00:36:04;;;;;;;4.95;1.50;;;;;;;15.94;70.32;99886.30;1713837;81;21133;-55
2021/08/15 00:38:31;;;;;;;2.90;1.20;;;;;;;15.91;70.34;99893.31;1717462;82;20927;-55
2021/08/15 00:40:57;;;;;;;5.72;1.55;;;;;;;15.88;70.34;99893.03;1717839;82;20947;-55
2021/08/15 00:43:23;;;;;;;3.22;1.10;;;;;;;15.85;70.67;99885.95;1716007;82;21764;-56
2021/08/15 00:45:51;;;;;;;4.10;1.15;;;;;;;15.85;70.67;99885.95;1716456;82;21432;-55
2021/08/15 00:48:17;;;;;;;6.60;1.32;;;;;;;15.87;70.78;99893.51;1718040;82;20916;-56
2021/08/15 00:50:45;;;;;;;3.42;1.50;;;;;;;15.88;70.92;99890.31;1715020;82;20967;-55
2021/08/15 00:53:12;;;;;;;3.15;1.10;;;;;;;15.87;70.98;99890.80;1720239;82;21319;-56
2021/08/15 00:55:41;;;;;;;3.10;1.47;;;;;;;15.88;71.04;99893.03;1722902;82;21377;-55
2021/08/15 00:58:09;;;;;;;4.75;1.65;;;;;;;15.87;71.07;99888.08;1719653;80;21007;-56
2021/08/15 01:00:37;;;;;;;3.75;1.40;;;;;;;15.84;71.20;99884.20;1719571;82;20911;-55
2021/08/15 01:03:04;;;;;;;7.60;1.30;;;;;;;15.84;71.20;99884.20;1715266;82;20959;-56
2021/08/15 01:05:30;;;;;;;1.72;0.90;;;;;;;15.82;71.22;99883.43;1718759;82;21009;-55
2021/08/15 01:08:00;;;;;;;4.42;1.20;;;;;;;15.83;71.28;99885.66;1716832;81;22227;-54
2021/08/15 01:10:27;;;;;;;1.50;1.00;;;;;;;15.80;71.29;99875.91;1716873;82;21062;-55
2021/08/15 01:12:54;;;;;;;2.83;1.37;;;;;;;15.82;71.28;99880.72;1718357;82;21384;-55
2021/08/15 01:15:20;;;;;;;3.47;1.10;;;;;;;15.81;71.29;99876.78;1714150;82;21951;-56
2021/08/15 01:17:48;;;;;;;4.95;1.30;;;;;;;15.81;71.34;99881.72;1712224;81;21488;-55
2021/08/15 01:20:14;;;;;;;2.20;1.32;;;;;;;15.79;71.28;99885.02;1714835;82;21816;-55
2021/08/15 01:22:45;;;;;;;3.12;1.20;;;;;;;15.78;71.19;99877.84;1717585;82;21090;-56
2021/08/15 01:25:13;;;;;;;4.62;1.10;;;;;;;15.75;71.16;99888.02;1714261;82;21969;-56
2021/08/15 01:27:46;;;;;;;3.42;1.17;;;;;;;15.73;71.19;99882.73;1713201;82;21732;-56
2021/08/15 01:30:14;;;;;;;2.08;1.10;;;;;;;15.70;71.16;99876.14;1711304;82;21129;-55
2021/08/15 01:32:41;;;;;;;2.12;1.10;;;;;;;15.65;71.03;99876.08;1718076;82;22222;-55
2021/08/15 01:35:08;;;;;;;2.52;1.30;;;;;;;15.65;71.03;99876.08;1717060;82;20978;-55
2021/08/15 01:37:35;;;;;;;3.87;1.70;;;;;;;15.66;71.30;99884.56;1718417;82;21015;-55
2021/08/15 01:40:04;;;;;;;6.08;1.10;;;;;;;15.64;71.38;99873.84;1720149;80;20974;-55
2021/08/15 01:42:31;;;;;;;1.75;1.05;;;;;;;15.62;71.43;99876.27;1716326;82;21615;-55
2021/08/15 01:44:59;;;;;;;3.10;1.62;;;;;;;15.61;71.40;99873.17;1712450;82;21105;-54
2021/08/15 01:47:27;;;;;;;3.65;1.47;;;;;;;15.60;71.34;99878.20;1714994;82;21118;-56
2021/08/15 01:49:55;;;;;;;3.45;1.27;;;;;;;15.56;71.28;99873.48;1720028;82;21105;-56
2021/08/15 01:52:21;;;;;;;6.20;1.47;;;;;;;15.50;71.30;99868.41;1717612;82;21153;-55
2021/08/15 01:54:49;;;;;;;6.40;1.30;;;;;;;15.49;71.35;99872.09;1714015;82;21136;-55
2021/08/15 01:57:15;;;;;;;3.35;1.57;;;;;;;15.45;71.41;99870.58;1715706;82;21121;-58
2021/08/15 01:59:42;;;;;;;4.70;1.60;;;;;;;15.39;71.41;99867.80;1716559;82;21559;-57
2021/08/15 02:02:09;;;;;;;5.25;1.30;;;;;;;15.39;71.41;99867.80;1711493;82;21164;-58
2021/08/15 02:04:35;;;;;;;4.95;1.30;;;;;;;15.39;71.65;99869.63;1715792;82;21047;-58
2021/08/15 02:07:05;;;;;;;2.85;1.50;;;;;;;15.38;72.19;99863.34;1715761;82;21093;-58
2021/08/15 02:09:31;;;;;;;3.85;1.72;;;;;;;15.38;72.19;99863.34;1710556;82;21828;-57
2021/08/15 02:12:01;;;;;;;3.40;1.65;;;;;;;15.34;72.00;99864.50;1715980;82;21061;-57
2021/08/15 02:14:28;;;;;;;4.03;1.95;;;;;;;15.34;72.00;99864.50;1715146;82;21081;-58
2021/08/15 02:16:56;;;;;;;4.50;1.10;;;;;;;15.33;71.70;99865.95;1719305;82;21082;-58
2021/08/15 02:19:23;;;;;;;2.33;1.40;;;;;;;15.30;71.73;99867.05;1655072;85;21087;-58
2021/08/15 02:21:50;;;;;;;3.08;1.27;;;;;;;15.29;71.82;99858.52;1714842;82;21199;-58
2021/08/15 02:24:16;;;;;;;3.27;1.30;;;;;;;15.26;71.85;99865.48;1714191;81;21280;-56
2021/08/15 02:26:42;;;;;;;7.10;1.45;;;;;;;15.27;71.87;99865.88;1669488;83;21550;-58
2021/08/15 02:29:09;;;;;;;3.35;1.42;;;;;;;15.28;71.85;99869.46;1715012;82;21511;-57
2021/08/15 02:31:35;;;;;;;2.20;1.15;;;;;;;15.27;71.76;99864.52;1717993;82;21046;-58
2021/08/15 02:34:03;;;;;;;3.17;1.87;;;;;;;15.27;71.75;99868.59;1713433;82;21114;-58
2021/08/15 02:36:29;;;;;;;3.92;1.60;;;;;;;15.26;71.76;99870.91;1651792;84;21082;-58
2021/08/15 02:38:56;;;;;;;4.70;1.55;;;;;;;15.24;71.75;99874.69;1710933;82;21098;-57
2021/08/15 02:41:22;;;;;;;4.67;2.30;;;;;;;15.22;71.83;99866.67;1718076;82;21731;-57
2021/08/15 02:43:48;;;;;;;3.77;1.75;;;;;;;15.20;71.96;99867.73;1717291;82;21448;-58
2021/08/15 02:46:14;;;;;;;3.60;1.45;;;;;;;15.17;71.53;99859.79;1712568;82;21098;-57
2021/08/15 02:48:41;;;;;;;4.10;2.40;;;;;;;15.17;71.64;99865.21;1713675;82;21062;-57
2021/08/15 02:51:08;;;;;;;3.25;1.80;;;;;;;15.17;71.64;99865.21;1713585;82;21085;-58
2021/08/15 02:53:34;;;;;;;2.10;1.42;;;;;;;15.15;71.93;99866.18;1719360;82;21051;-58
2021/08/15 02:56:01;;;;;;;2.27;1.80;;;;;;;15.17;71.95;99867.44;1711535;82;21085;-57
2021/08/15 02:58:27;;;;;;;2.92;2.67;;;;;;;15.17;71.96;99871.51;1708313;82;23345;-57
2021/08/15 03:00:54;;;;;;;3.10;1.98;;;;;;;15.17;71.63;99867.44;1711686;82;21049;-57
2021/08/15 03:03:21;;;;;;;2.67;2.10;;;;;;;15.17;71.63;99867.44;1718867;82;21678;-57
2021/08/15 03:05:47;;;;;;;2.15;1.60;;;;;;;15.15;71.96;99868.89;1649303;84;21101;-57
2021/08/15 03:08:14;;;;;;;3.60;1.85;;;;;;;15.15;71.96;99871.60;1712151;82;21098;-56
2021/08/15 03:10:40;;;;;;;3.40;1.67;;;;;;;15.13;72.01;99863.20;1711872;80;22793;-58
2021/08/15 03:13:07;;;;;;;3.85;1.62;;;;;;;15.12;71.91;99860.98;1712544;80;21377;-57
2021/08/15 03:15:37;;;;;;;2.35;1.47;;;;;;;15.12;71.91;99860.98;1710052;82;21026;-56
2021/08/15 03:18:06;;;;;;;3.37;1.30;;;;;;;15.10;72.22;99856.62;1712854;80;21069;-56
2021/08/15 03:20:32;;;;;;;1.72;1.10;;;;;;;15.11;72.36;99857.01;1713018;80;21078;-57
2021/08/15 03:22:59;;;;;;;2.35;1.45;;;;;;;15.15;72.44;99864.83;1716388;82;21139;-57
2021/08/15 03:25:25;;;;;;;6.25;1.75;;;;;;;15.18;72.57;99858.34;1716757;80;21123;-56
2021/08/15 03:27:52;;;;;;;3.25;1.95;;;;;;;15.20;72.88;99858.25;1715678;81;21066;-57
2021/08/15 03:30:18;;;;;;;6.17;2.25;;;;;;;15.21;72.72;99860.86;1713753;80;21069;-57
2021/08/15 03:32:44;;;;;;;3.00;1.65;;;;;;;15.21;72.82;99862.70;1711826;80;21105;-57
2021/08/15 03:35:10;;;;;;;2.22;1.62;;;;;;;15.19;72.92;99861.44;1710233;82;21583;-57
2021/08/15 03:37:38;;;;;;;5.67;1.70;;;;;;;15.18;73.04;99862.41;1711446;80;21097;-58
2021/08/15 03:40:06;;;;;;;2.90;1.47;;;;;;;15.20;73.10;99870.45;1713126;82;22260;-57
2021/08/15 03:42:32;;;;;;;2.08;1.60;;;;;;;15.20;73.17;99874.03;1717002;80;20930;-57
2021/08/15 03:44:59;;;;;;;3.25;1.95;;;;;;;15.22;73.30;99869.88;1716452;80;21025;-58
2021/08/15 03:47:31;;;;;;;3.20;1.45;;;;;;;15.26;73.74;99874.11;1717816;82;22179;-57
2021/08/15 03:49:55;;;;;;;2.87;1.72;;;;;;;15.29;73.41;99873.44;1716448;82;21840;-58
2021/08/15 03:52:21;;;;;;;2.62;1.70;;;;;;;15.34;73.51;99869.05;1719100;82;21626;-57
2021/08/15 03:54:47;;;;;;;3.30;1.90;;;;;;;15.39;73.57;99870.50;1717553;82;20970;-56
2021/08/15 03:57:14;;;;;;;6.15;1.95;;;;;;;15.44;73.58;99864.77;1716984;82;21002;-59
2021/08/15 03:59:41;;;;;;;3.47;1.72;;;;;;;15.49;73.60;99866.19;1713322;82;21162;-60
2021/08/15 04:02:07;;;;;;;3.55;1.60;;;;;;;15.55;73.65;99860.02;1716274;82;21125;-59
2021/08/15 04:04:34;;;;;;;4.25;2.12;;;;;;;15.60;73.71;99862.80;1717058;82;21074;-58
2021/08/15 04:07:00;;;;;;;3.00;1.85;;;;;;;15.66;73.75;99852.88;1718333;82;21021;-58
2021/08/15 04:09:27;;;;;;;2.17;1.52;;;;;;;15.74;73.80;99860.50;1714426;82;21480;-57
2021/08/15 04:11:54;;;;;;;3.27;2.12;;;;;;;15.84;73.98;99853.48;1715158;82;21119;-57
2021/08/15 04:14:22;;;;;;;2.83;1.70;;;;;;;16.00;74.03;99853.29;1714205;81;21117;-58
2021/08/15 04:16:49;;;;;;;2.62;2.25;;;;;;;16.19;73.88;99856.48;1716793;82;20989;-56
2021/08/15 04:19:15;;;;;;;6.20;2.20;;;;;;;16.38;73.76;99856.07;1716624;82;21098;-59
2021/08/15 04:21:42;;;;;;;4.25;2.12;;;;;;;16.61;73.57;99858.92;1716622;82;20990;-57
2021/08/15 04:24:09;;;;;;;4.80;2.47;;;;;;;16.89;73.32;99852.38;1717628;82;21042;-57
2021/08/15 04:26:35;;;;;;;4.67;2.15;;;;;;;17.14;72.82;99847.86;1710875;82;21037;-58
2021/08/15 04:29:03;;;;;;;5.60;2.08;;;;;;;17.34;72.37;99852.22;1713496;82;21925;-60
2021/08/15 04:31:30;;;;;;;2.60;1.75;;;;;;;17.51;71.90;99849.59;1718075;82;21575;-59
2021/08/15 04:33:58;;;;;;;4.65;2.10;;;;;;;17.73;71.45;99849.73;1718649;82;21046;-59
2021/08/15 04:36:24;;;;;;;2.67;1.92;;;;;;;18.02;71.08;99851.59;1724906;82;21084;-58
2021/08/15 04:38:50;;;;;;;3.92;1.82;;;;;;;18.27;70.52;99847.83;1718828;82;21715;-59
2021/08/15 04:41:17;;;;;;;2.42;1.60;;;;;;;18.45;69.97;99842.78;1717644;82;21289;-56
2021/08/15 04:43:44;;;;;;;2.62;2.00;;;;;;;18.54;69.61;99842.89;1717629;82;21082;-58
2021/08/15 04:46:12;;;;;;;3.37;1.97;;;;;;;18.62;69.47;99842.34;1715043;82;21109;-58
2021/08/15 04:48:38;;;;;;;6.22;2.70;;;;;;;18.67;69.75;99846.05;1717084;82;21566;-63
2021/08/15 04:51:04;;;;;;;5.10;2.58;;;;;;;18.69;69.83;99839.98;1719629;81;21553;-60
2021/08/15 04:53:31;;;;;;;2.50;1.92;;;;;;;18.72;69.87;99844.67;1714103;81;21038;-59
2021/08/15 04:55:57;;;;;;;2.27;2.08;;;;;;;18.75;69.62;99841.72;1715577;81;21059;-57
2021/08/15 04:58:23;;;;;;;3.90;2.35;;;;;;;18.81;69.35;99847.16;1715960;82;21052;-58
2021/08/15 05:00:50;;;;;;;2.35;2.15;;;;;;;18.89;69.25;99843.31;1719748;82;22603;-57
2021/08/15 05:03:17;;;;;;;3.50;2.42;;;;;;;18.97;69.01;99843.56;1713145;82;21271;-58
2021/08/15 05:05:44;;;;;;;4.20;2.08;;;;;;;19.05;68.49;99844.33;1713580;82;22262;-57
2021/08/15 05:08:10;;;;;;;2.62;2.17;;;;;;;19.13;67.93;99841.34;1711682;82;21569;-57
2021/08/15 05:10:36;;;;;;;3.67;2.02;;;;;;;19.23;67.31;99848.25;1718029;82;22069;-59
2021/08/15 05:13:04;;;;;;;2.08;1.77;;;;;;;19.34;66.89;99841.91;1724481;82;21090;-60
2021/08/15 05:15:31;;;;;;;7.05;2.20;;;;;;;19.42;66.35;99838.91;1724916;82;21033;-58
2021/08/15 05:17:57;;;;;;;2.60;2.00;;;;;;;19.52;65.79;99836.31;1719518;82;21105;-62
2021/08/15 05:20:24;;;;;;;2.25;1.40;;;;;;;19.61;65.37;99832.82;1716988;82;21098;-62
2021/08/15 05:22:51;;;;;;;1.70;1.50;;;;;;;19.72;65.34;99830.56;1720211;80;22283;-60
2021/08/15 05:25:17;;;;;;;5.50;2.12;;;;;;;19.82;65.41;99827.42;1715748;82;21091;-58
2021/08/15 05:27:44;;;;;;;1.80;1.32;;;;;;;19.92;64.99;99826.97;1719361;82;21079;-59
2021/08/15 05:30:11;;;;;;;1.50;1.32;;;;;;;20.03;64.24;99829.66;1716526;82;21056;-57
2021/08/15 05:32:38;;;;;;;2.60;1.30;;;;;;;20.15;63.77;99825.02;1718073;81;21105;-61
2021/08/15 05:35:06;;;;;;;1.87;1.50;;;;;;;20.28;63.58;99827.03;1687053;83;21077;-58
2021/08/15 05:37:32;;;;;;;2.27;1.50;;;;;;;20.39;63.55;99830.61;1705741;82;21149;-59
2021/08/15 05:39:59;;;;;;;1.70;1.30;;;;;;;20.51;63.17;99822.31;1712535;82;21134;-60
2021/08/15 05:42:26;;;;;;;9.60;2.37;;;;;;;20.64;63.03;99822.97;1715975;82;21062;-60
2021/08/15 05:44:52;;;;;;;3.80;1.70;;;;;;;20.75;63.02;99811.45;1715114;82;21097;-59
2021/08/15 05:47:20;;;;;;;4.33;1.30;;;;;;;20.87;62.41;99814.07;1712631;82;21102;-58
2021/08/15 05:49:46;;;;;;;1.40;1.10;;;;;;;20.97;61.99;99812.25;1715125;82;21150;-58
2021/08/15 05:52:13;;;;;;;2.80;1.32;;;;;;;21.09;61.48;99818.00;1715299;82;21038;-60
2021/08/15 05:54:39;;;;;;;2.58;1.55;;;;;;;21.18;60.81;99814.42;1715753;82;21070;-60
2021/08/15 05:57:07;;;;;;;1.60;1.30;;;;;;;21.29;60.62;99807.98;1715544;82;21106;-60
2021/08/15 05:59:34;;;;;;;1.52;1.20;;;;;;;21.39;60.77;99804.77;1716793;82;21084;-59
2021/08/15 06:02:02;;;;;;;2.58;1.22;;;;;;;21.48;60.30;99802.55;1712684;82;21144;-57
2021/08/15 06:04:30;;;;;;;3.65;1.70;;;;;;;21.58;59.82;99801.19;1716303;82;21141;-60
2021/08/15 06:06:57;;;;;;;1.92;1.10;;;;;;;21.67;59.63;99800.34;1715777;82;21409;-58
2021/08/15 06:09:25;;;;;;;2.08;1.55;;;;;;;21.75;59.43;99804.59;1718128;82;21551;-59
2021/08/15 06:11:51;;;;;;;1.42;1.27;;;;;;;21.83;59.22;99798.76;1713623;82;21301;-58
2021/08/15 06:14:19;;;;;;;2.65;1.37;;;;;;;21.93;59.14;99803.37;1685226;84;22273;-58
2021/08/15 06:16:46;;;;;;;2.60;1.12;;;;;;;22.02;58.83;99803.91;1684777;84;21057;-59
2021/08/15 06:19:13;;;;;;;1.52;1.07;;;;;;;22.10;58.27;99798.05;1686633;83;21061;-58
2021/08/15 06:21:40;;;;;;;1.90;1.20;;;;;;;22.17;57.80;99800.56;1691938;83;20923;-59
2021/08/15 06:24:07;;;;;;;3.05;1.12;;;;;;;22.26;57.70;99805.67;1687423;84;20938;-60
2021/08/15 06:26:34;;;;;;;2.35;1.02;;;;;;;22.34;56.93;99800.32;1687653;83;21782;-59
2021/08/15 06:29:00;;;;;;;1.42;1.10;;;;;;;22.44;56.76;99797.56;1686543;84;21097;-58
2021/08/15 06:31:28;;;;;;;2.05;1.20;;;;;;;22.52;56.59;99804.03;1684020;84;21050;-59
2021/08/15 06:33:54;;;;;;;1.85;1.60;;;;;;;22.62;56.94;99799.39;1677397;83;21149;-59
2021/08/15 06:36:20;;;;;;;4.95;1.60;;;;;;;22.71;56.55;99795.39;1667998;85;21078;-59
2021/08/15 06:38:47;;;;;;;2.05;1.60;;;;;;;22.80;56.33;99795.35;1669756;84;21201;-59
2021/08/15 06:41:13;;;;;;;5.08;1.82;;;;;;;22.89;55.80;99793.08;1663702;85;21045;-59
2021/08/15 06:43:41;;;;;;;3.20;1.47;;;;;;;22.97;55.31;99794.55;1668092;85;20904;-56
2021/08/15 06:47:14;;;;;;;3.17;1.70;;;;;;;23.12;54.74;99797.69;1794284;78;22615;-56
2021/08/15 06:49:40;;;;;;;1.85;1.37;;;;;;;23.17;54.20;99793.09;1772302;78;20997;-58
2021/08/15 06:52:07;;;;;;;2.52;1.00;;;;;;;23.23;53.57;99793.34;1763955;79;21087;-57
2021/08/15 06:54:35;;;;;;;1.07;0.90;;;;;;;23.30;53.27;99790.36;1769371;79;20984;-57
2021/08/15 06:57:02;;;;;;;1.15;0.95;;;;;;;23.38;52.38;99789.59;1764623;78;20993;-58
2021/08/15 06:59:28;;;;;;;2.12;1.10;;;;;;;23.44;51.80;99794.95;1772612;78;21032;-56
2021/08/15 07:01:55;;;;;;;2.00;0.90;;;;;;;23.52;51.42;99795.08;1765763;79;21454;-60
2021/08/15 07:04:21;;;;;;;2.05;1.77;;;;;;;23.59;51.52;99790.68;1768284;79;21511;-58
2021/08/15 07:06:47;;;;;;;3.10;0.90;;;;;;;23.65;51.48;99788.67;1765988;78;21052;-58
2021/08/15 07:09:14;;;;;;;2.08;1.00;;;;;;;23.74;51.82;99794.61;1767504;78;21029;-56
2021/08/15 07:11:40;;;;;;;2.75;0.90;;;;;;;23.85;51.54;99796.27;1765834;79;21108;-57
2021/08/15 07:14:06;;;;;;;4.25;0.93;;;;;;;23.96;51.07;99800.16;1762498;79;22068;-57
2021/08/15 07:16:32;;;;;;;2.02;0.80;;;;;;;24.06;51.07;99799.06;1768738;78;21541;-59
2021/08/15 07:18:59;;;;;;;5.83;1.22;;;;;;;24.19;50.62;99793.64;1771203;79;21045;-61
2021/08/15 07:21:25;;;;;;;1.52;1.00;;;;;;;24.28;50.11;99783.95;1767848;79;21140;-59
2021/08/15 07:23:51;;;;;;;2.42;1.00;;;;;;;24.39;50.59;99791.95;1772193;79;21561;-58
2021/08/15 07:26:18;;;;;;;1.80;1.10;;;;;;;24.49;50.35;99791.34;1770719;79;22277;-58
2021/08/15 07:28:45;;;;;;;2.35;1.47;;;;;;;24.60;49.73;99791.56;1765048;79;21471;-61
2021/08/15 07:31:12;;;;;;;1.85;0.95;;;;;;;24.71;49.15;99789.92;1768236;79;21022;-57
2021/08/15 07:33:38;;;;;;;1.22;0.80;;;;;;;24.82;49.21;99787.41;1751134;79;21060;-59
2021/08/15 07:36:05;;;;;;;1.50;1.00;;;;;;;24.90;48.77;99788.82;1750331;80;20973;-63
2021/08/15 07:38:31;;;;;;;1.12;0.90;;;;;;;24.99;48.80;99782.36;1743747;79;21124;-60
2021/08/15 07:40:57;;;;;;;1.12;0.90;;;;;;;25.07;48.68;99792.03;1745769;80;21320;-58
2021/08/15 07:43:26;;;;;;;1.47;0.95;;;;;;;25.15;48.53;99789.31;1744588;79;21387;-61
2021/08/15 07:45:52;;;;;;;1.40;1.00;;;;;;;25.19;47.75;99786.55;1735294;80;21437;-61
2021/08/15 07:48:18;;;;;;;2.20;0.90;;;;;;;25.22;47.30;99784.86;1736209;80;21089;-57
2021/08/15 07:50:45;;;;;;;3.05;1.00;;;;;;;25.28;46.98;99779.70;1744205;80;21034;-59
2021/08/15 07:53:21;;;;;;;1.92;1.00;;;;;;;25.35;46.85;99782.16;1729710;80;21790;-60
2021/08/15 07:55:48;;;;;;;2.72;0.90;;;;;;;25.38;46.00;99779.91;1731212;80;21110;-60
2021/08/15 07:58:15;;;;;;;2.85;1.07;;;;;;;25.44;46.70;99780.61;1738407;80;21042;-61
2021/08/15 08:00:41;;;;;;;3.80;0.88;;;;;;;25.52;46.70;99782.55;1735388;80;21524;-59
2021/08/15 08:03:08;;;;;;;2.27;0.88;;;;;;;25.60;46.22;99777.92;1729235;80;21045;-57
2021/08/15 08:05:34;;;;;;;2.52;0.82;;;;;;;25.64;45.75;99777.08;1737381;80;21144;-60
2021/08/15 08:08:03;;;;;;;3.58;1.12;;;;;;;25.67;45.58;99775.89;1744198;80;21094;-59
2021/08/15 08:10:30;;;;;;;9.38;0.90;;;;;;;25.69;45.79;99773.28;1731748;80;21058;-59
2021/08/15 08:12:56;;;;;;;1.20;1.00;;;;;;;25.73;45.97;99774.69;1738670;80;21095;-59
2021/08/15 08:15:24;;;;;;;2.65;1.00;;;;;;;25.81;46.36;99773.83;1730371;80;21313;-58
2021/08/15 08:17:51;;;;;;;1.60;1.07;;;;;;;25.89;45.92;99771.94;1735906;80;21492;-58
2021/08/15 08:20:18;;;;;;;2.00;1.00;;;;;;;25.95;45.96;99776.76;1731345;80;21062;-60
2021/08/15 08:22:45;;;;;;;2.22;0.75;;;;;;;26.05;45.66;99764.70;1672995;83;21303;-60
2021/08/15 08:25:11;;;;;;;3.40;0.90;;;;;;;26.13;45.21;99767.45;1687592;83;21503;-61
2021/08/15 08:27:38;;;;;;;1.15;0.90;;;;;;;26.21;44.74;99766.93;1705532;82;22192;-60
2021/08/15 08:30:06;;;;;;;2.05;0.70;;;;;;;26.27;44.80;99762.67;1674496;83;21011;-58
2021/08/15 08:32:32;;;;;;;2.35;0.82;;;;;;;26.33;44.53;99766.97;1670635;83;21100;-60
2021/08/15 08:34:58;;;;;;;2.58;1.00;;;;;;;26.42;44.12;99768.33;1684247;83;21093;-59
2021/08/15 08:37:25;;;;;;;5.37;1.02;;;;;;;26.50;44.17;99773.84;1698367;82;21093;-57
2021/08/15 08:39:59;;;;;;;1.22;0.90;;;;;;;26.56;43.70;99767.61;1699089;82;21096;-57
2021/08/15 08:42:22;;;;;;;3.17;1.42;;;;;;;26.61;44.07;99765.20;1697404;82;21123;-60
2021/08/15 08:44:50;;;;;;;1.27;0.93;;;;;;;26.65;43.98;99762.41;1686723;83;21348;-58
2021/08/15 08:47:16;;;;;;;2.65;0.98;;;;;;;26.68;43.67;99757.41;1680389;83;21062;-62
2021/08/15 08:49:44;;;;;;;3.35;1.00;;;;;;;26.68;43.09;99757.41;1674157;83;21090;-59
2021/08/15 08:52:11;;;;;;;1.20;0.90;;;;;;;26.69;42.69;99757.76;1686248;82;21070;-59
2021/08/15 08:54:37;;;;;;;2.58;0.90;;;;;;;26.71;42.94;99748.75;1707292;82;21754;-62
2021/08/15 08:57:03;;;;;;;2.47;1.00;;;;;;;26.77;43.03;99748.58;1685451;82;21118;-64
2021/08/15 08:59:30;;;;;;;2.20;1.12;;;;;;;26.83;42.77;99753.39;1687850;82;21824;-59
2021/08/15 09:01:56;;;;;;;6.17;0.90;;;;;;;26.90;43.02;99748.87;1699292;82;21366;-61
2021/08/15 09:04:22;;;;;;;3.33;1.02;;;;;;;26.95;42.33;99747.87;1680612;82;21078;-57
2021/08/15 09:06:49;;;;;;;0.88;0.80;;;;;;;26.97;42.13;99738.86;1694068;82;21144;-59
2021/08/15 09:09:18;;;;;;;1.80;1.00;;;;;;;26.98;41.88;99745.24;1684986;82;21054;-62
2021/08/15 09:11:48;;;;;;;2.75;0.80;;;;;;;26.99;41.70;99743.69;1688416;82;21544;-59
2021/08/15 09:14:18;;;;;;;2.02;1.17;;;;;;;27.05;41.47;99743.52;1685860;82;20959;-57
2021/08/15 09:16:59;;;;;;;3.00;0.95;;;;;;;27.07;41.10;99737.27;1685981;82;20924;-61
2021/08/15 09:19:44;;;;;;;14.00;2.00;;;;;;;27.09;41.33;99734.67;1684744;82;21406;-59
2021/08/15 09:22:24;;;;;;;1.45;0.95;;;;;;;27.16;41.29;99729.28;1682504;82;20991;-57
2021/08/15 09:24:59;;;;;;;1.10;0.90;;;;;;;27.23;40.92;99729.41;1687121;82;21797;-61
2021/08/15 09:27:38;;;;;;;3.85;0.90;;;;;;;27.28;40.94;99725.08;1680781;82;21485;-57
2021/08/15 09:30:15;;;;;;;5.17;0.98;;;;;;;27.34;40.90;99716.05;1723327;80;20919;-59
2021/08/15 09:32:49;;;;;;;2.80;0.90;;;;;;;27.40;40.94;99718.08;1724334;80;21137;-62
2021/08/15 09:35:23;;;;;;;1.70;1.02;;;;;;;27.47;40.15;99714.08;1734326;80;20867;-58
2021/08/15 09:37:57;;;;;;;;;;;;;;;27.50;40.00;99718.70;1729152;80;21460;-60
2021/08/15 09:40:34;;;;;;;2.98;1.15;;;;;;;27.51;39.85;99715.42;1722903;80;20461;-59
2021/08/15 09:43:05;;;;;;;4.60;1.00;;;;;;;27.55;39.96;99719.59;1715734;80;20970;-58
2021/08/15 09:45:58;;;;;;;1.37;1.00;;;;;;;27.57;40.41;99709.18;1729222;80;21098;-60
2021/08/15 09:48:35;;;;;;;1.00;0.88;;;;;;;27.60;40.08;99713.49;1726965;80;20919;-58
2021/08/15 09:51:08;;;;;;;4.40;1.00;;;;;;;27.64;39.85;99712.09;1724361;80;21005;-61
2021/08/15 09:53:48;;;;;;;1.62;0.72;;;;;;;27.67;39.99;99706.17;1738804;80;21038;-60
2021/08/15 09:56:14;;;;;;;1.85;0.90;;;;;;;27.68;39.86;99703.75;1721418;80;22331;-62
2021/08/15 09:58:41;;;;;;;2.95;0.85;;;;;;;27.69;39.62;99690.27;1724187;80;21106;-61
2021/08/15 10:01:08;;;;;;;0.85;0.75;;;;;;;27.71;39.49;99695.96;1726418;80;21081;-60
2021/08/15 10:03:37;;;;;;;1.45;1.10;;;;;;;27.74;39.77;99698.33;1722037;80;21137;-58
2021/08/15 10:06:04;;;;;;;1.92;1.15;;;;;;;27.78;39.47;99688.64;1724590;80;21504;-63
2021/08/15 10:08:32;;;;;;;1.40;1.00;;;;;;;27.82;39.64;99692.73;1726785;80;20958;-64
2021/08/15 10:11:00;;;;;;;1.12;0.90;;;;;;;27.85;39.38;99681.83;1742091;80;21024;-60
2021/08/15 10:13:27;;;;;;;2.65;0.80;;;;;;;27.87;39.61;99682.52;1722816;80;21623;-61
2021/08/15 10:16:03;;;;;;;3.02;0.90;;;;;;;27.91;39.72;99685.75;1727195;80;21021;-62
2021/08/15 10:18:31;;;;;;;2.22;0.80;;;;;;;27.94;39.03;99672.94;1721379;80;20966;-57
2021/08/15 10:21:03;;;;;;;3.70;0.90;;;;;;;27.92;38.93;99671.73;1733809;80;21016;-57
2021/08/15 10:23:38;;;;;;;3.85;0.80;;;;;;;27.92;39.87;99668.11;1722126;80;22350;-60
2021/08/15 10:26:28;;;;;;;1.05;0.80;;;;;;;27.93;39.15;99667.92;1721850;80;21132;-58
2021/08/15 10:28:55;;;;;;;2.42;0.82;;;;;;;27.97;39.72;99662.37;1731289;80;21342;-59
2021/08/15 10:31:22;;;;;;;1.40;1.15;;;;;;;28.02;39.06;99657.12;1671343;84;22955;-59
2021/08/15 10:33:54;;;;;;;2.17;1.00;;;;;;;28.05;39.40;99660.05;1726121;80;21685;-59
2021/08/15 10:36:27;;;;;;;1.40;0.90;;;;;;;28.09;38.81;99654.45;1726245;80;22181;-58
2021/08/15 10:38:56;;;;;;;2.17;0.70;;;;;;;28.10;38.36;99649.26;1724388;80;20959;-62
2021/08/15 10:41:49;;;;;;;1.80;1.00;;;;;;;28.09;39.01;99651.16;1723429;80;20881;-61
2021/08/15 10:44:16;;;;;;;3.35;1.00;;;;;;;28.08;38.95;99654.97;1727432;80;21525;-58
2021/08/15 10:47:15;;;;;;;2.20;1.00;;;;;;;28.07;38.89;99649.10;1727299;80;22084;-61
2021/08/15 10:49:50;;;;;;;1.15;0.80;;;;;;;28.07;39.31;99651.87;1658259;84;21217;-61
2021/08/15 10:52:39;;;;;;;1.92;0.80;;;;;;;28.06;37.95;99642.40;1722877;80;21035;-61
2021/08/15 10:55:11;;;;;;;5.00;1.30;;;;;;;28.05;37.79;99643.44;1740960;80;21464;-58
2021/08/15 10:57:48;;;;;;;1.90;1.00;;;;;;;28.04;38.25;99645.34;1736296;80;21050;-60
2021/08/15 11:00:36;;;;;;;2.80;0.80;;;;;;;28.05;37.74;99640.16;1736023;80;21065;-61
2021/08/15 11:03:18;;;;;;;1.25;0.98;;;;;;;28.07;38.33;99639.97;1734914;80;21202;-63
2021/08/15 11:05:45;;;;;;;3.00;1.00;;;;;;;28.12;38.45;99635.58;1743763;80;21742;-62
2021/08/15 11:08:47;;;;;;;2.85;1.00;;;;;;;28.15;38.47;99626.91;1735440;80;21636;-60
2021/08/15 11:11:27;;;;;;;3.10;1.00;;;;;;;28.19;38.59;99628.27;1734866;80;21010;-59
2021/08/15 11:14:24;;;;;;;2.65;0.80;;;;;;;28.24;38.57;99624.94;1739181;80;21042;-61
2021/08/15 11:17:11;;;;;;;3.77;1.17;;;;;;;28.30;38.65;99620.55;1741177;80;21168;-63
2021/08/15 11:19:38;;;;;;;2.05;1.45;;;;;;;28.35;37.96;99623.06;1736686;80;21765;-61
2021/08/15 11:22:25;;;;;;;2.95;1.17;;;;;;;28.39;37.45;99626.32;1737718;80;21110;-64
2021/08/15 11:24:58;;;;;;;1.07;0.93;;;;;;;28.39;37.47;99620.27;1739117;80;21098;-60
2021/08/15 11:27:40;;;;;;;1.37;1.00;;;;;;;28.40;37.05;99612.30;1735772;80;21140;-62
2021/08/15 11:30:12;;;;;;;3.40;1.07;;;;;;;28.41;37.46;99616.75;1735203;80;22233;-61
2021/08/15 11:32:40;;;;;;;1.10;0.82;;;;;;;28.43;37.13;99617.42;1742528;80;21060;-63
2021/08/15 11:35:11;;;;;;;1.10;0.90;;;;;;;28.45;37.48;99618.10;1735956;80;21110;-61
2021/08/15 11:37:53;;;;;;;3.17;0.80;;;;;;;28.48;37.25;99612.19;1739113;80;21125;-60
2021/08/15 11:40:22;;;;;;;1.77;0.98;;;;;;;28.48;36.56;99608.04;1739363;80;21150;-63
2021/08/15 11:43:09;;;;;;;1.12;0.93;;;;;;;28.47;36.52;99601.30;1741746;80;21657;-62